Time;durP1;ratioP1;P1;durP2;ratioP2;P2;SDS_P1;SDS_P2;PMS_P1;PMS_P2;Temp;Humidity;BMP_temperature;BMP_pressure;BME280_temperature;BME280_humidity;BME280_pressure;Samples;Min_cycle;Max_cycle;Signal;HPM_P1;HPM_P2
2021/12/25 00:00:17;;;;;;;3.20;1.70;;;26.10;56.80;;;;;;4123242;28;20057;-58
2021/12/25 00:02:19;;;;;;;2.53;1.60;;;26.00;56.40;;;;;;4127343;28;20053;-59
2021/12/25 00:04:21;;;;;;;1.83;1.50;;;26.00;56.20;;;;;;4119395;28;20049;-58
2021/12/25 00:06:24;;;;;;;2.33;1.60;;;25.90;56.30;;;;;;4136238;28;20060;-60
2021/12/25 00:08:31;;;;;;;3.78;1.60;;;25.80;57.10;;;;;;4122525;28;20173;-59
2021/12/25 00:10:33;;;;;;;3.30;1.80;;;25.80;57.70;;;;;;4125875;28;20158;-59
2021/12/25 00:12:36;;;;;;;2.05;1.40;;;25.80;58.30;;;;;;4116868;28;20620;-60
2021/12/25 00:14:38;;;;;;;1.93;1.63;;;25.90;59.20;;;;;;4116707;28;20092;-59
2021/12/25 00:16:40;;;;;;;3.80;1.48;;;25.90;57.90;;;;;;4126719;28;20375;-59
2021/12/25 00:18:42;;;;;;;2.20;1.50;;;25.80;56.90;;;;;;4119556;28;20135;-58
2021/12/25 00:20:45;;;;;;;2.53;1.38;;;25.70;56.20;;;;;;4148748;28;20049;-58
2021/12/25 00:22:47;;;;;;;1.98;1.40;;;25.60;56.10;;;;;;4123409;28;20219;-58
2021/12/25 00:24:50;;;;;;;1.80;1.20;;;25.50;56.30;;;;;;4122150;28;20049;-59
2021/12/25 00:29:04;;;;;;;3.67;1.55;;;25.50;58.30;;;;;;4112926;28;20097;-58
2021/12/25 00:31:26;;;;;;;1.92;1.50;;;25.50;59.60;;;;;;4119084;28;20132;-59
2021/12/25 00:33:36;;;;;;;2.05;1.40;;;25.60;58.80;;;;;;4120369;28;20743;-60
2021/12/25 00:35:38;;;;;;;3.53;1.58;;;25.50;57.70;;;;;;4112640;28;20049;-60
2021/12/25 00:37:40;;;;;;;2.78;1.48;;;25.40;57.00;;;;;;4120772;28;20064;-55
2021/12/25 00:39:46;;;;;;;1.80;1.35;;;25.30;56.60;;;;;;4125258;28;20107;-54
2021/12/25 00:41:48;;;;;;;2.42;1.60;;;25.20;57.40;;;;;;4119849;28;20207;-56
2021/12/25 00:43:51;;;;;;;6.15;1.40;;;25.10;57.30;;;;;;4117389;28;20056;-55
2021/12/25 00:45:53;;;;;;;;;;;25.20;58.30;;;;;;4119796;28;20830;-55
2021/12/25 00:47:55;;;;;;;1.27;1.02;;;25.20;59.00;;;;;;4154741;28;19928;-56
2021/12/25 00:49:57;;;;;;;2.38;1.60;;;25.30;59.40;;;;;;4117632;28;20049;-57
2021/12/25 00:51:59;;;;;;;1.88;1.50;;;25.30;58.60;;;;;;4119428;28;20415;-56
2021/12/25 00:54:01;;;;;;;1.52;1.25;;;25.20;58.00;;;;;;4124367;28;20072;-56
2021/12/25 00:56:04;;;;;;;13.73;1.67;;;25.10;57.70;;;;;;4118009;28;20103;-53
2021/12/25 00:58:06;;;;;;;2.20;1.47;;;25.10;57.90;;;;;;4117689;28;20108;-54
2021/12/25 01:02:12;;;;;;;5.38;1.77;;;25.00;59.00;;;;;;4169129;27;20449;-59
2021/12/25 01:04:14;;;;;;;4.57;2.05;;;25.10;61.60;;;;;;4167932;28;20049;-56
2021/12/25 01:06:16;;;;;;;2.75;1.70;;;25.20;63.50;;;;;;4153938;28;20057;-52
2021/12/25 01:08:18;;;;;;;6.53;1.40;;;25.30;64.20;;;;;;4174858;28;20052;-56
2021/12/25 01:10:21;;;;;;;2.38;1.60;;;25.40;64.30;;;;;;4166271;28;20085;-56
2021/12/25 01:12:24;;;;;;;5.07;1.67;;;25.40;63.50;;;;;;4163145;28;20048;-56
2021/12/25 01:14:43;;;;;;;4.32;1.52;;;25.50;63.60;;;;;;4172788;28;20143;-56
2021/12/25 01:28:29;;;;;;;6.07;4.20;;;26.00;64.10;;;;;;4163886;28;20093;-53
2021/12/25 01:30:50;;;;;;;4.65;3.47;;;26.00;64.50;;;;;;4166481;28;20682;-53
2021/12/25 01:35:17;;;;;;;4.90;2.90;;;26.20;65.70;;;;;;4165562;28;20043;-55
2021/12/25 01:39:26;;;;;;;4.40;2.38;;;26.30;65.80;;;;;;4164958;28;20468;-53
2021/12/25 01:48:11;;;;;;;3.78;2.35;;;26.60;65.90;;;;;;4167341;28;20093;-54
2021/12/25 01:50:14;;;;;;;3.97;2.60;;;26.70;65.70;;;;;;4169127;28;20052;-56
2021/12/25 01:52:16;;;;;;;4.10;2.17;;;26.80;65.80;;;;;;4170230;28;21741;-52
2021/12/25 01:54:18;;;;;;;;;;;26.80;65.60;;;;;;4147212;28;20521;-53
2021/12/25 01:56:22;;;;;;;4.80;2.53;;;26.90;65.80;;;;;;4169921;28;20919;-56
2021/12/25 01:58:24;;;;;;;3.15;2.22;;;26.90;65.80;;;;;;4171099;28;20071;-49
2021/12/25 02:00:45;;;;;;;5.23;2.50;;;27.00;65.80;;;;;;4165283;28;20534;-54
2021/12/25 02:02:49;;;;;;;4.28;2.25;;;27.10;65.90;;;;;;4171217;28;20086;-49
2021/12/25 02:04:52;;;;;;;2.83;1.88;;;27.10;65.70;;;;;;4169652;28;20040;-52
2021/12/25 02:06:54;;;;;;;5.30;2.50;;;27.20;65.60;;;;;;4166451;28;20048;-52
2021/12/25 02:08:56;;;;;;;4.30;2.70;;;27.20;65.50;;;;;;4176828;28;20051;-56
2021/12/25 02:10:58;;;;;;;3.80;2.37;;;27.30;65.50;;;;;;4169933;28;20059;-54
2021/12/25 02:13:03;;;;;;;3.50;2.20;;;27.30;65.40;;;;;;4158395;28;20083;-56
2021/12/25 02:15:13;;;;;;;4.63;2.60;;;27.40;65.30;;;;;;4148321;28;20047;-52
2021/12/25 02:19:31;;;;;;;3.50;2.17;;;27.50;65.00;;;;;;4161369;28;20088;-52
2021/12/25 02:21:42;;;;;;;4.50;2.45;;;27.50;64.80;;;;;;4162591;28;20145;-53
2021/12/25 02:23:45;;;;;;;4.30;2.35;;;27.60;64.90;;;;;;4161125;28;20849;-53
2021/12/25 02:25:48;;;;;;;4.70;2.22;;;27.70;64.80;;;;;;4154380;28;21049;-51
2021/12/25 02:27:49;;;;;;;;;;;27.70;65.00;;;;;;4155642;28;20073;-52
2021/12/25 02:29:52;;;;;;;4.72;2.60;;;27.80;64.90;;;;;;4161034;28;19932;-53
2021/12/25 02:32:05;;;;;;;4.28;2.28;;;27.80;65.00;;;;;;4158836;28;20067;-52
2021/12/25 02:34:07;;;;;;;4.50;2.25;;;27.90;64.80;;;;;;4159921;28;20120;-49
2021/12/25 02:36:11;;;;;;;5.32;2.20;;;27.90;64.80;;;;;;4156513;28;20048;-49
2021/12/25 02:38:14;;;;;;;3.60;2.10;;;28.00;64.70;;;;;;4152352;28;20064;-51
2021/12/25 02:40:16;;;;;;;;;;;28.00;64.90;;;;;;4161907;28;20094;-50
2021/12/25 02:42:19;;;;;;;4.82;2.13;;;28.00;64.70;;;;;;4153824;28;20512;-50
2021/12/25 02:44:21;;;;;;;3.47;2.35;;;28.10;64.90;;;;;;4159256;28;20052;-54
2021/12/25 02:46:24;;;;;;;5.33;2.40;;;28.10;64.60;;;;;;4158725;28;20103;-58
2021/12/25 02:48:27;;;;;;;5.55;2.30;;;28.20;64.60;;;;;;4164901;28;20084;-55
2021/12/25 02:50:31;;;;;;;3.83;2.25;;;28.20;64.50;;;;;;4157673;28;20060;-49
2021/12/25 02:52:33;;;;;;;3.83;2.13;;;28.30;64.00;;;;;;4161275;28;20055;-52
2021/12/25 02:54:36;;;;;;;3.33;1.80;;;28.30;64.30;;;;;;4166903;28;20052;-52
2021/12/25 02:56:38;;;;;;;3.55;2.00;;;28.30;64.20;;;;;;4162602;28;20697;-55
2021/12/25 02:58:40;;;;;;;3.42;1.95;;;28.40;64.30;;;;;;4158214;28;20072;-60
2021/12/25 03:00:53;;;;;;;3.90;2.07;;;28.40;64.00;;;;;;4155947;28;20056;-53
2021/12/25 03:02:55;;;;;;;4.00;2.00;;;28.50;63.90;;;;;;4161992;28;20055;-57
2021/12/25 03:04:57;;;;;;;2.83;1.70;;;28.50;63.80;;;;;;4162911;28;20819;-54
2021/12/25 03:06:59;;;;;;;4.67;2.33;;;28.50;63.80;;;;;;4156121;28;20189;-57
2021/12/25 03:09:03;;;;;;;3.53;1.90;;;28.60;63.80;;;;;;4154834;28;20057;-56
2021/12/25 03:11:07;;;;;;;2.75;1.92;;;28.60;63.60;;;;;;4162046;28;20899;-52
2021/12/25 03:15:17;;;;;;;3.60;1.80;;;28.70;63.80;;;;;;4157524;28;20075;-56
2021/12/25 03:17:19;;;;;;;2.72;1.75;;;28.70;63.80;;;;;;4154587;28;20052;-56
2021/12/25 03:19:29;;;;;;;3.67;1.90;;;28.80;63.70;;;;;;4160726;28;20068;-54
2021/12/25 03:21:31;;;;;;;3.95;1.75;;;28.80;63.60;;;;;;4159998;28;20056;-55
2021/12/25 03:23:36;;;;;;;3.17;1.75;;;28.80;63.70;;;;;;4153883;28;20044;-53
2021/12/25 03:25:38;;;;;;;4.00;1.70;;;28.80;63.50;;;;;;4153452;28;20173;-55
2021/12/25 03:27:43;;;;;;;3.33;1.80;;;28.90;63.60;;;;;;4158757;28;20254;-53
2021/12/25 03:29:45;;;;;;;3.78;2.03;;;28.90;63.50;;;;;;4161426;28;20080;-54
2021/12/25 03:31:49;;;;;;;3.95;1.60;;;29.00;63.60;;;;;;4153543;28;20188;-52
2021/12/25 03:33:55;;;;;;;4.55;2.00;;;29.00;63.50;;;;;;4150355;28;20206;-54
2021/12/25 03:35:58;;;;;;;4.47;1.80;;;29.00;63.40;;;;;;4153869;28;20072;-54
2021/12/25 03:38:01;;;;;;;3.53;1.90;;;29.10;63.30;;;;;;4158209;28;20056;-56
2021/12/25 03:40:05;;;;;;;4.07;1.88;;;29.10;63.30;;;;;;4154781;28;20056;-55
2021/12/25 03:42:08;;;;;;;4.82;2.25;;;29.20;63.90;;;;;;4152639;28;20210;-57
2021/12/25 03:44:10;;;;;;;4.55;1.85;;;29.20;63.10;;;;;;4157693;28;20044;-58
2021/12/25 03:46:14;;;;;;;3.70;2.00;;;29.20;63.20;;;;;;4156645;28;20146;-56
2021/12/25 03:48:42;;;;;;;3.88;2.35;;;29.20;63.00;;;;;;4150711;28;21027;-57
2021/12/25 03:53:25;;;;;;;3.67;2.17;;;29.30;63.00;;;;;;4155100;28;20048;-57
2021/12/25 03:57:54;;;;;;;3.63;1.80;;;29.40;65.00;;;;;;4161278;28;20045;-57
2021/12/25 04:00:00;;;;;;;3.30;1.77;;;29.40;63.90;;;;;;4161946;28;20430;-56
2021/12/25 04:02:19;;;;;;;2.60;1.58;;;29.40;60.90;;;;;;4172618;27;20479;-56
2021/12/25 04:04:32;;;;;;;1.95;1.40;;;29.30;59.70;;;;;;4167295;28;20713;-58
2021/12/25 04:06:43;;;;;;;2.15;1.60;;;29.20;58.40;;;;;;4169744;28;20056;-57
2021/12/25 04:08:46;;;;;;;2.53;1.40;;;29.10;57.40;;;;;;4168400;28;20056;-58
2021/12/25 04:11:00;;;;;;;2.33;1.30;;;28.90;56.60;;;;;;4163747;28;20424;-55
2021/12/25 04:13:08;;;;;;;2.88;1.38;;;28.80;56.10;;;;;;4160779;28;20602;-56
2021/12/25 04:15:10;;;;;;;2.05;1.40;;;28.70;55.80;;;;;;4142451;28;20040;-55
2021/12/25 04:17:13;;;;;;;1.53;1.10;;;28.60;55.40;;;;;;4161506;28;20210;-57
2021/12/25 04:19:15;;;;;;;1.60;1.20;;;28.50;55.30;;;;;;4169770;28;20052;-57
2021/12/25 04:21:17;;;;;;;2.03;1.53;;;28.50;55.20;;;;;;4159296;28;20147;-57
2021/12/25 04:23:24;;;;;;;1.75;1.15;;;28.40;55.00;;;;;;4161724;28;20366;-56
2021/12/25 04:25:29;;;;;;;2.53;1.40;;;28.30;54.90;;;;;;4163572;28;20051;-56
2021/12/25 04:27:32;;;;;;;2.38;1.38;;;28.20;54.80;;;;;;4153727;28;20048;-54
2021/12/25 04:29:41;;;;;;;2.55;1.40;;;28.10;54.80;;;;;;4147131;28;20060;-56
2021/12/25 04:32:12;;;;;;;2.28;1.55;;;28.10;54.70;;;;;;4144636;28;20083;-57
2021/12/25 05:01:52;;;;;;;2.47;1.45;;;27.20;55.00;;;;;;4146392;28;20877;-57
2021/12/25 05:03:59;;;;;;;1.90;1.50;;;27.20;55.00;;;;;;4150925;28;20079;-53
2021/12/25 05:06:01;;;;;;;2.03;1.40;;;27.10;54.90;;;;;;4154143;28;20075;-53
2021/12/25 05:08:04;;;;;;;2.72;1.60;;;27.10;55.00;;;;;;4145949;28;20060;-55
2021/12/25 05:10:06;;;;;;;2.45;1.50;;;27.10;55.20;;;;;;4145578;28;20574;-57
2021/12/25 05:12:09;;;;;;;2.70;1.45;;;27.00;55.20;;;;;;4146491;28;20060;-57
2021/12/25 05:14:11;;;;;;;1.45;1.20;;;27.00;55.20;;;;;;4139616;28;20446;-57
2021/12/25 05:16:14;;;;;;;1.67;1.27;;;27.00;55.10;;;;;;4134127;28;20076;-57
2021/12/25 05:18:16;;;;;;;1.98;1.20;;;26.90;55.10;;;;;;4137458;28;20072;-58
2021/12/25 05:20:18;;;;;;;1.97;1.23;;;26.90;55.20;;;;;;4140737;28;20549;-57
2021/12/25 05:22:20;;;;;;;1.77;1.27;;;26.80;55.20;;;;;;4133954;28;20377;-57
2021/12/25 05:24:23;;;;;;;1.77;1.35;;;26.80;55.20;;;;;;4135166;28;20103;-57
2021/12/25 05:26:25;;;;;;;1.70;1.03;;;26.80;55.20;;;;;;4143122;28;20053;-55
2021/12/25 05:28:35;;;;;;;1.38;0.90;;;26.70;55.20;;;;;;4135403;28;20081;-57
2021/12/25 05:30:37;;;;;;;2.15;1.10;;;26.70;55.10;;;;;;4135083;28;20276;-56
2021/12/25 05:32:40;;;;;;;1.45;0.98;;;26.70;55.10;;;;;;4134246;28;20147;-57
2021/12/25 05:34:42;;;;;;;2.33;1.40;;;26.70;55.20;;;;;;4140750;28;20437;-57
2021/12/25 05:36:44;;;;;;;1.70;1.07;;;26.60;55.30;;;;;;4138196;28;20414;-57
2021/12/25 05:38:47;;;;;;;1.67;1.02;;;26.60;55.30;;;;;;4133249;28;20106;-57
2021/12/25 05:40:49;;;;;;;1.58;1.08;;;26.60;55.40;;;;;;4133713;28;20068;-58
2021/12/25 05:42:52;;;;;;;2.13;1.33;;;26.50;55.30;;;;;;4142639;28;20049;-56
2021/12/25 05:44:54;;;;;;;2.00;1.20;;;26.50;55.30;;;;;;4133511;28;20107;-57
2021/12/25 05:46:56;;;;;;;2.65;1.40;;;26.50;55.40;;;;;;4136023;28;20052;-54
2021/12/25 05:48:59;;;;;;;1.90;1.20;;;26.50;55.40;;;;;;4140890;28;20065;-57
2021/12/25 05:51:04;;;;;;;;;;;26.40;55.40;;;;;;4136905;28;21262;-57
2021/12/25 05:53:07;;;;;;;2.13;1.30;;;26.40;55.70;;;;;;4133044;28;19925;-57
2021/12/25 05:55:09;;;;;;;2.38;1.42;;;26.40;56.60;;;;;;4133256;28;20096;-57
2021/12/25 05:57:11;;;;;;;2.47;1.42;;;26.50;56.80;;;;;;4141302;28;20207;-55
2021/12/25 05:59:13;;;;;;;2.87;1.60;;;26.50;57.70;;;;;;4134106;28;20717;-57
2021/12/25 06:01:16;;;;;;;1.95;1.23;;;26.50;57.10;;;;;;4134448;28;20623;-57
2021/12/25 06:03:18;;;;;;;2.90;1.40;;;26.50;56.80;;;;;;4139754;28;20052;-58
2021/12/25 06:05:20;;;;;;;3.70;1.60;;;26.50;56.70;;;;;;4137340;28;20226;-58
2021/12/25 06:07:22;;;;;;;3.60;1.80;;;26.40;56.70;;;;;;4133349;28;20049;-57
2021/12/25 06:09:25;;;;;;;2.55;1.33;;;26.40;56.20;;;;;;4134411;28;20642;-58
2021/12/25 06:11:28;;;;;;;3.13;1.90;;;26.40;55.90;;;;;;4141398;28;20149;-58
2021/12/25 06:13:31;;;;;;;4.25;2.70;;;26.40;55.70;;;;;;4132262;28;20437;-54
2021/12/25 06:15:33;;;;;;;3.58;2.30;;;26.30;55.60;;;;;;4134488;28;21333;-58
2021/12/25 06:17:35;;;;;;;4.20;2.53;;;26.40;56.30;;;;;;4140959;28;20676;-58
2021/12/25 06:19:38;;;;;;;3.25;2.70;;;26.30;55.50;;;;;;4137124;28;20084;-57
2021/12/25 06:21:40;;;;;;;3.58;2.60;;;26.30;55.80;;;;;;4134168;28;20440;-57
2021/12/25 06:23:42;;;;;;;4.87;3.17;;;26.30;56.50;;;;;;4134717;28;20118;-58
2021/12/25 06:25:44;;;;;;;4.60;2.40;;;26.30;57.00;;;;;;4123305;28;20650;-57
2021/12/25 06:27:47;;;;;;;3.92;2.80;;;26.30;57.90;;;;;;4133487;28;20253;-57
2021/12/25 06:29:50;;;;;;;6.43;3.03;;;26.30;57.30;;;;;;4134452;28;20575;-56
2021/12/25 06:31:52;;;;;;;4.95;2.97;;;26.30;56.70;;;;;;4139749;28;20052;-55
2021/12/25 06:33:55;;;;;;;4.43;3.15;;;26.30;56.30;;;;;;4136958;28;20060;-58
2021/12/25 06:35:57;;;;;;;5.20;3.53;;;26.20;55.90;;;;;;4131807;28;20084;-56
2021/12/25 06:37:59;;;;;;;4.75;3.78;;;26.20;55.60;;;;;;4136444;28;20948;-59
2021/12/25 06:40:02;;;;;;;4.70;3.80;;;26.20;55.60;;;;;;4139329;28;20226;-57
2021/12/25 06:42:05;;;;;;;4.80;3.47;;;26.10;55.30;;;;;;4135209;28;20153;-57
2021/12/25 06:44:07;;;;;;;4.93;3.75;;;26.10;55.60;;;;;;4132204;28;20140;-55
2021/12/25 06:46:09;;;;;;;4.72;3.67;;;26.10;56.20;;;;;;4140600;28;21233;-60
2021/12/25 06:48:11;;;;;;;4.63;3.40;;;26.10;56.70;;;;;;4134652;28;20933;-56
2021/12/25 06:50:13;;;;;;;5.18;3.80;;;26.20;57.70;;;;;;4136553;28;20314;-57
2021/12/25 06:52:16;;;;;;;4.43;2.90;;;26.20;57.40;;;;;;4139060;28;20764;-60
2021/12/25 06:54:18;;;;;;;4.22;3.20;;;26.10;56.60;;;;;;4138791;28;22039;-57
2021/12/25 06:56:21;;;;;;;3.55;2.90;;;26.10;56.50;;;;;;4134401;28;21008;-59
2021/12/25 06:58:23;;;;;;;;;;;26.10;55.90;;;;;;4133995;28;20057;-58
2021/12/25 07:02:15;;;;;;;3.05;2.40;;;26.00;54.90;;;;;;4194877;27;20498;-59
2021/12/25 07:04:17;;;;;;;3.60;2.60;;;26.00;55.30;;;;;;4199438;28;20106;-55
2021/12/25 07:06:21;;;;;;;3.40;2.10;;;25.90;55.20;;;;;;4191292;28;20113;-58
2021/12/25 07:08:23;;;;;;;3.42;2.20;;;25.90;55.90;;;;;;4173667;28;20052;-57
2021/12/25 07:10:27;;;;;;;4.25;2.17;;;26.00;56.40;;;;;;4196745;28;20044;-60
2021/12/25 07:12:32;;;;;;;4.13;2.30;;;26.00;56.80;;;;;;4199549;28;20131;-57
2021/12/25 07:14:34;;;;;;;3.35;2.05;;;26.00;57.30;;;;;;4191727;28;20061;-58
2021/12/25 07:16:36;;;;;;;2.67;1.92;;;26.00;56.70;;;;;;4185368;28;20054;-59
2021/12/25 07:18:38;;;;;;;3.15;1.95;;;25.90;56.20;;;;;;4194064;28;20067;-59
2021/12/25 07:20:42;;;;;;;2.40;1.83;;;25.90;55.80;;;;;;4188443;28;20052;-59
2021/12/25 07:22:44;;;;;;;2.47;1.70;;;25.90;55.50;;;;;;4186507;28;20039;-57
2021/12/25 07:24:46;;;;;;;2.33;1.60;;;25.80;55.20;;;;;;4191388;28;20044;-57
2021/12/25 07:26:49;;;;;;;2.83;1.90;;;25.80;55.50;;;;;;4182240;28;20080;-58
2021/12/25 07:28:51;;;;;;;2.15;1.52;;;25.80;56.20;;;;;;4171800;28;20110;-58
2021/12/25 07:30:55;;;;;;;1.58;1.25;;;25.80;56.60;;;;;;4171795;28;20122;-57
2021/12/25 07:32:57;;;;;;;2.38;1.65;;;25.80;56.80;;;;;;4176944;28;20048;-58
2021/12/25 07:35:02;;;;;;;4.50;1.90;;;25.90;57.30;;;;;;4174090;28;20178;-58
2021/12/25 07:37:05;;;;;;;3.13;1.92;;;25.90;56.60;;;;;;4166928;28;20079;-57
2021/12/25 07:39:07;;;;;;;2.00;1.53;;;25.80;56.00;;;;;;4171785;28;20052;-58
2021/12/25 07:41:09;;;;;;;1.80;1.30;;;25.80;55.70;;;;;;4174456;28;21015;-58
2021/12/25 07:43:11;;;;;;;2.65;1.67;;;25.70;55.40;;;;;;4170626;28;20193;-58
2021/12/25 07:45:15;;;;;;;2.42;1.38;;;25.70;55.40;;;;;;4168179;28;20063;-57
2021/12/25 07:47:21;;;;;;;2.00;1.40;;;25.70;56.00;;;;;;4176275;28;21219;-58
2021/12/25 07:49:23;;;;;;;2.30;1.40;;;25.70;56.50;;;;;;4176194;28;20048;-57
2021/12/25 07:51:25;;;;;;;2.17;1.35;;;25.70;56.80;;;;;;4167803;28;20877;-55
2021/12/25 07:53:27;;;;;;;2.40;1.23;;;25.80;57.90;;;;;;4166460;28;20233;-59
2021/12/25 07:55:32;;;;;;;2.53;1.50;;;25.70;57.00;;;;;;4175555;28;20063;-58
2021/12/25 07:57:34;;;;;;;2.40;1.40;;;25.70;56.50;;;;;;4169237;28;22002;-58
2021/12/25 07:59:36;;;;;;;2.22;1.48;;;25.70;56.00;;;;;;4167089;28;20072;-59
2021/12/25 08:01:38;;;;;;;2.78;1.55;;;25.60;55.70;;;;;;4169039;28;20113;-56
2021/12/25 08:03:40;;;;;;;2.72;1.40;;;25.60;55.60;;;;;;4159152;28;20544;-58
2021/12/25 08:05:44;;;;;;;2.50;1.35;;;25.60;56.20;;;;;;4168766;28;20523;-58
2021/12/25 08:07:46;;;;;;;2.63;1.20;;;25.60;56.60;;;;;;4168879;28;20044;-58
2021/12/25 08:09:48;;;;;;;2.13;1.30;;;25.60;56.90;;;;;;4173143;28;20122;-60
2021/12/25 08:11:51;;;;;;;2.20;1.35;;;25.60;57.80;;;;;;4168324;28;20102;-59
2021/12/25 08:13:55;;;;;;;2.22;1.17;;;25.70;57.70;;;;;;4149423;28;20048;-58
2021/12/25 08:15:57;;;;;;;2.58;1.33;;;25.70;57.90;;;;;;4155695;28;20056;-58
2021/12/25 08:18:03;;;;;;;0.93;0.80;;;25.70;58.00;;;;;;4164759;28;20045;-57
2021/12/25 08:20:06;;;;;;;2.97;1.00;;;25.80;58.20;;;;;;4157545;28;20166;-57
2021/12/25 08:22:08;;;;;;;1.67;1.00;;;25.80;58.20;;;;;;4157316;28;20973;-59
2021/12/25 08:24:11;;;;;;;2.22;0.90;;;25.80;58.30;;;;;;4155852;28;20055;-56
2021/12/25 08:26:13;;;;;;;1.20;0.83;;;25.90;58.60;;;;;;4166037;28;20044;-56
2021/12/25 08:28:15;;;;;;;1.25;1.05;;;25.90;58.60;;;;;;4154548;28;20052;-58
2021/12/25 08:30:20;;;;;;;0.85;0.70;;;26.00;58.70;;;;;;4156973;28;20061;-55
2021/12/25 08:32:23;;;;;;;0.98;0.80;;;26.00;58.80;;;;;;4158985;28;20506;-59
2021/12/25 08:34:25;;;;;;;1.15;0.55;;;26.10;58.90;;;;;;4162150;28;20141;-58
2021/12/25 08:36:27;;;;;;;2.35;1.10;;;26.10;59.10;;;;;;4155273;28;20059;-58
2021/12/25 08:38:29;;;;;;;2.35;0.70;;;26.10;59.10;;;;;;4157124;28;20052;-58
2021/12/25 08:40:31;;;;;;;1.67;0.77;;;26.20;59.30;;;;;;4161772;28;20128;-58
2021/12/25 08:42:34;;;;;;;0.70;0.60;;;26.20;59.50;;;;;;4155542;28;20052;-58
2021/12/25 08:44:42;;;;;;;0.63;0.60;;;26.30;59.60;;;;;;4155006;28;20043;-55
2021/12/25 08:46:54;;;;;;;2.55;1.05;;;26.30;59.60;;;;;;4155397;28;20144;-59
2021/12/25 08:48:56;;;;;;;2.50;1.33;;;26.40;60.20;;;;;;4155155;28;20094;-59
2021/12/25 08:51:00;;;;;;;2.10;1.20;;;26.30;59.20;;;;;;4159877;28;20048;-58
2021/12/25 08:53:02;;;;;;;1.85;1.08;;;26.30;58.50;;;;;;4155298;28;20056;-57
2021/12/25 08:55:05;;;;;;;1.00;0.90;;;26.20;58.50;;;;;;4156453;28;20063;-57
2021/12/25 08:57:07;;;;;;;;;;;26.20;58.90;;;;;;4161510;28;20140;-60
2021/12/25 08:59:10;;;;;;;1.50;0.88;;;26.30;59.00;;;;;;4160322;28;19935;-61
2021/12/25 09:01:12;;;;;;;1.48;0.80;;;26.30;59.10;;;;;;4153933;28;20178;-58
2021/12/25 09:03:15;;;;;;;2.40;1.17;;;26.30;59.30;;;;;;4157231;28;20040;-58
2021/12/25 09:05:17;;;;;;;1.73;0.90;;;26.40;59.40;;;;;;4163750;28;20131;-59
2021/12/25 09:07:20;;;;;;;1.98;0.82;;;26.40;59.60;;;;;;4153725;28;20048;-59
2021/12/25 09:09:22;;;;;;;1.30;0.70;;;26.40;59.90;;;;;;4155512;28;20139;-59
2021/12/25 09:11:24;;;;;;;0.93;0.67;;;26.50;60.00;;;;;;4160061;28;20512;-57
2021/12/25 09:13:27;;;;;;;0.88;0.60;;;26.50;60.10;;;;;;4158236;28;21066;-58
2021/12/25 09:15:29;;;;;;;0.93;0.63;;;26.50;60.30;;;;;;4155709;28;20055;-57
2021/12/25 09:17:32;;;;;;;2.10;1.17;;;26.50;60.60;;;;;;4139593;28;20067;-59
2021/12/25 09:19:34;;;;;;;1.85;1.02;;;26.60;60.50;;;;;;4160643;28;20351;-58
2021/12/25 09:21:36;;;;;;;0.80;0.77;;;26.50;59.30;;;;;;4154205;28;20539;-57
2021/12/25 09:23:38;;;;;;;1.50;1.00;;;26.50;59.20;;;;;;4152295;28;20056;-58
2021/12/25 09:25:41;;;;;;;0.93;0.60;;;26.50;59.40;;;;;;4160635;28;20052;-57
2021/12/25 09:27:44;;;;;;;1.40;0.77;;;26.50;59.50;;;;;;4155965;28;20232;-59
2021/12/25 09:29:47;;;;;;;1.48;0.80;;;26.50;59.60;;;;;;4155929;28;20524;-58
2021/12/25 09:31:50;;;;;;;1.48;0.80;;;26.50;59.60;;;;;;4154905;28;20068;-59
2021/12/25 09:33:52;;;;;;;0.93;0.70;;;26.60;59.80;;;;;;4162258;28;20061;-58
2021/12/25 09:35:54;;;;;;;1.52;0.82;;;26.60;59.90;;;;;;4151227;28;20439;-58
2021/12/25 09:37:59;;;;;;;1.43;0.70;;;26.60;59.90;;;;;;4152817;28;21233;-58
2021/12/25 09:40:02;;;;;;;2.00;0.70;;;26.70;60.00;;;;;;4159181;28;20058;-59
2021/12/25 09:42:06;;;;;;;0.52;0.50;;;26.70;60.00;;;;;;4156289;28;20685;-58
2021/12/25 09:44:08;;;;;;;2.28;1.02;;;26.70;60.00;;;;;;4153164;28;20053;-59
2021/12/25 09:46:10;;;;;;;0.93;0.77;;;26.70;60.10;;;;;;4154565;28;20049;-58
2021/12/25 09:48:12;;;;;;;0.70;0.60;;;26.80;60.10;;;;;;4158902;28;20463;-57
2021/12/25 09:50:15;;;;;;;1.02;0.63;;;26.80;60.10;;;;;;4156918;28;22110;-58
2021/12/25 09:52:18;;;;;;;1.17;0.75;;;26.80;60.20;;;;;;4152533;28;20253;-60
2021/12/25 09:54:31;;;;;;;2.25;0.68;;;26.90;60.30;;;;;;4155785;28;21931;-60
2021/12/25 09:56:40;;;;;;;1.63;0.70;;;26.80;60.20;;;;;;4155513;28;20074;-60
2021/12/25 09:58:44;;;;;;;1.33;0.50;;;26.90;60.30;;;;;;4159168;28;20093;-57
2021/12/25 10:02:14;;;;;;;0.60;0.60;;;26.90;59.80;;;;;;4161768;27;20559;-59
2021/12/25 10:04:50;;;;;;;0.77;0.43;;;27.00;60.40;;;;;;4133190;28;20076;-59
2021/12/25 10:06:52;;;;;;;0.85;0.50;;;27.00;60.30;;;;;;4141195;28;20064;-59
2021/12/25 10:08:55;;;;;;;1.83;1.05;;;27.00;60.50;;;;;;4128850;28;20049;-59
2021/12/25 10:11:01;;;;;;;2.20;0.80;;;27.00;60.90;;;;;;4143731;28;20040;-62
2021/12/25 10:13:16;;;;;;;5.75;0.85;;;27.10;61.10;;;;;;4132912;28;20060;-59
2021/12/25 10:15:21;;;;;;;1.95;0.90;;;27.10;61.40;;;;;;4133013;28;20132;-60
2021/12/25 10:17:27;;;;;;;2.95;1.20;;;27.10;61.60;;;;;;4136901;28;20551;-59
2021/12/25 10:19:31;;;;;;;3.08;1.25;;;27.10;62.40;;;;;;4136152;28;20057;-61
2021/12/25 10:21:39;;;;;;;1.42;0.95;;;27.20;62.20;;;;;;4115560;28;21426;-61
2021/12/25 10:23:41;;;;;;;13.90;1.47;;;27.20;61.90;;;;;;4129403;28;20053;-59
2021/12/25 10:25:55;;;;;;;10.57;1.65;;;27.20;62.00;;;;;;4128829;28;20045;-60
2021/12/25 10:28:01;;;;;;;6.78;1.35;;;27.30;62.40;;;;;;4132089;28;20475;-60
2021/12/25 10:30:06;;;;;;;29.50;3.10;;;27.30;62.40;;;;;;4134838;28;20053;-61
2021/12/25 10:32:38;;;;;;;12.13;2.08;;;27.30;62.80;;;;;;4136925;28;20045;-59
2021/12/25 10:34:40;;;;;;;3.60;1.50;;;27.30;63.00;;;;;;4129841;28;20095;-58
2021/12/25 10:36:43;;;;;;;4.47;1.33;;;27.40;63.00;;;;;;4120822;28;20045;-60
2021/12/25 10:38:59;;;;;;;4.75;1.40;;;27.40;63.00;;;;;;4119157;28;20442;-60
2021/12/25 10:41:22;;;;;;;6.18;1.38;;;27.40;62.90;;;;;;4136663;28;20057;-58
2021/12/25 10:43:25;;;;;;;4.55;1.23;;;27.50;62.90;;;;;;4131363;28;20037;-58
2021/12/25 10:45:29;;;;;;;2.35;1.40;;;27.50;62.90;;;;;;4138608;28;20474;-58
2021/12/25 10:47:32;;;;;;;6.85;1.70;;;27.50;62.90;;;;;;4136630;28;20698;-59
2021/12/25 10:49:43;;;;;;;3.70;1.23;;;27.50;63.00;;;;;;4133255;28;20054;-59
2021/12/25 10:51:46;;;;;;;3.10;1.17;;;27.50;63.00;;;;;;4129667;28;20846;-56
2021/12/25 10:53:52;;;;;;;5.43;1.20;;;27.60;63.10;;;;;;4134854;28;20080;-58
2021/12/25 10:56:09;;;;;;;4.15;1.10;;;27.60;63.10;;;;;;4138005;28;20745;-58
2021/12/25 10:58:20;;;;;;;2.38;1.00;;;27.60;63.10;;;;;;4132088;28;20059;-59
2021/12/25 11:00:22;;;;;;;6.00;1.20;;;27.70;63.30;;;;;;4136966;28;20088;-58
2021/12/25 11:02:42;;;;;;;5.10;1.20;;;27.70;63.20;;;;;;4135458;28;21520;-57
2021/12/25 11:04:44;;;;;;;7.03;1.33;;;27.70;63.20;;;;;;4140279;28;20631;-55
2021/12/25 11:06:47;;;;;;;4.28;1.20;;;27.80;63.30;;;;;;4135271;28;21877;-57
2021/12/25 11:08:49;;;;;;;7.60;1.25;;;27.80;63.30;;;;;;4134179;28;20053;-55
2021/12/25 11:11:13;;;;;;;4.97;1.10;;;27.80;63.20;;;;;;4137212;28;20085;-57
2021/12/25 11:13:21;;;;;;;2.42;0.77;;;27.80;63.20;;;;;;4126639;28;20037;-57
2021/12/25 11:15:26;;;;;;;3.65;1.13;;;27.90;63.20;;;;;;4125320;28;20810;-55
2021/12/25 11:17:33;;;;;;;2.13;1.00;;;27.90;63.20;;;;;;4128829;28;20049;-54
2021/12/25 11:19:56;;;;;;;2.72;0.73;;;27.90;63.20;;;;;;4130933;28;20075;-59
2021/12/25 11:22:00;;;;;;;3.40;0.70;;;27.90;63.20;;;;;;4129668;28;20532;-59
2021/12/25 11:24:13;;;;;;;2.45;0.70;;;27.90;63.20;;;;;;4130026;28;20702;-59
2021/12/25 11:26:16;;;;;;;1.67;0.80;;;28.00;63.30;;;;;;4129116;28;20092;-56
2021/12/25 11:28:18;;;;;;;3.05;1.00;;;28.00;63.30;;;;;;4134277;28;20375;-59
2021/12/25 11:30:24;;;;;;;3.75;0.90;;;28.00;63.20;;;;;;4120948;28;20094;-59
2021/12/25 11:32:26;;;;;;;3.00;1.00;;;28.00;63.30;;;;;;4120111;28;20259;-59
2021/12/25 11:34:29;;;;;;;4.90;0.90;;;28.00;63.20;;;;;;4126508;28;20136;-61
2021/12/25 11:36:33;;;;;;;4.93;1.00;;;28.10;63.30;;;;;;4122049;28;20422;-60
2021/12/25 11:38:35;;;;;;;2.08;0.80;;;28.10;63.30;;;;;;4121392;28;20049;-60
2021/12/25 11:40:43;;;;;;;1.17;0.63;;;28.10;63.40;;;;;;4119910;28;20175;-61
2021/12/25 11:42:48;;;;;;;3.33;0.70;;;28.10;63.40;;;;;;4123266;28;20053;-62
2021/12/25 11:44:54;;;;;;;1.98;0.70;;;28.10;63.30;;;;;;4126410;28;20525;-60
2021/12/25 11:46:56;;;;;;;1.48;0.75;;;28.10;63.30;;;;;;4122456;28;20055;-61
2021/12/25 11:49:18;;;;;;;1.50;0.53;;;28.20;63.40;;;;;;4121914;28;20048;-61
2021/12/25 11:51:29;;;;;;;2.50;0.98;;;28.20;63.40;;;;;;4122504;28;20081;-61
2021/12/25 11:54:04;;;;;;;1.40;0.60;;;28.20;63.40;;;;;;4121809;28;21147;-62
2021/12/25 11:58:42;;;;;;;1.42;0.70;;;28.20;63.30;;;;;;4116613;28;20153;-62